createdAt,value
2019-03-01T00:01:36.704Z,94597.77
2019-03-01T00:04:16.707Z,94600.11
2019-03-01T00:06:55.747Z,94598.86
2019-03-01T00:09:42.745Z,94596.84
2019-03-01T00:13:21.083Z,94587.56
2019-03-01T00:16:08.825Z,94591.23
2019-03-01T00:19:50.989Z,94589.36
2019-03-01T00:22:27.796Z,94588.92
2019-03-01T00:25:07.151Z,94551.48
2019-03-01T00:28:55.578Z,94580.58
2019-03-01T00:31:38.132Z,94581.83
2019-03-01T00:34:26.531Z,94570.23
2019-03-01T00:37:09.697Z,94577.14
2019-03-01T00:39:47.350Z,94570.02
2019-03-01T00:42:26.639Z,94560.77
2019-03-01T00:44:56.185Z,94553.71
2019-03-01T00:47:25.990Z,94550.97
2019-03-01T00:49:55.424Z,94539.73
2019-03-01T00:52:24.429Z,94537.33
2019-03-01T00:54:53.515Z,94540.27
2019-03-01T00:57:22.489Z,94534.72
2019-03-01T00:59:52.180Z,94548.02
2019-03-01T01:02:21.291Z,94541.50
2019-03-01T01:04:50.529Z,94534.80
2019-03-01T01:07:19.608Z,94526.83
2019-03-01T01:09:48.705Z,94527.70
2019-03-01T01:12:18.369Z,94528.47
2019-03-01T01:14:47.467Z,94521.16
2019-03-01T01:17:16.405Z,94527.91
2019-03-01T01:19:45.392Z,94525.05
2019-03-01T01:22:14.705Z,94528.70
2019-03-01T01:24:43.556Z,94531.29
2019-03-01T01:27:12.929Z,94547.61
2019-03-01T01:29:41.885Z,94534.02
2019-03-01T01:32:11.048Z,94535.80
2019-03-01T01:34:40.017Z,94533.88
2019-03-01T01:37:09.328Z,94529.28
2019-03-01T02:23:13.776Z,94528.05
2019-03-01T02:25:42.794Z,94531.68
2019-03-01T02:28:12.650Z,94515.38
2019-03-01T02:30:41.815Z,94519.41
2019-03-01T02:33:11.062Z,94516.62
2019-03-01T02:35:40.186Z,94514.45
2019-03-01T02:38:10.058Z,94515.42
2019-03-01T02:40:39.215Z,94514.70
2019-03-01T02:43:08.681Z,94500.98
2019-03-01T02:45:37.862Z,94508.37
2019-03-01T02:48:07.024Z,94514.65
2019-03-01T02:50:36.222Z,94510.58
2019-03-01T02:53:05.968Z,94511.61
2019-03-01T02:55:35.907Z,94521.41
2019-03-01T02:58:05.050Z,94518.08
2019-03-01T03:00:34.594Z,94526.31
2019-03-01T03:03:03.721Z,94528.63
2019-03-01T03:05:33.016Z,94539.23
2019-03-01T03:08:04.974Z,94539.88
2019-03-01T03:10:34.290Z,94545.09
2019-03-01T03:13:05.762Z,94542.53
2019-03-01T03:15:38.045Z,94534.55
2019-03-01T03:18:07.277Z,94541.61
2019-03-01T03:20:36.124Z,94541.77
2019-03-01T03:23:05.073Z,94541.77
2019-03-01T03:25:34.006Z,94564.78
2019-03-01T03:28:03.154Z,94547.52
2019-03-01T03:30:32.290Z,94555.86
2019-03-01T03:33:01.826Z,94555.95
2019-03-01T03:35:31.016Z,94564.64
2019-03-01T03:38:00.518Z,94567.22
2019-03-01T03:40:30.191Z,94568.20
2019-03-01T03:42:59.524Z,94558.00
2019-03-01T03:45:29.196Z,94573.96
2019-03-01T03:47:58.801Z,94561.88
2019-03-01T03:50:28.737Z,94550.83
2019-03-01T03:52:58.261Z,94551.71
2019-03-01T03:55:27.537Z,94559.47
2019-03-01T03:57:56.825Z,94557.28
2019-03-01T04:00:26.002Z,94555.11
2019-03-01T04:02:55.287Z,94549.66
2019-03-01T04:05:24.217Z,94551.21
2019-03-01T04:07:53.687Z,94550.42
2019-03-01T04:10:22.643Z,94544.34
2019-03-01T04:12:51.606Z,94553.27
2019-03-01T04:15:20.781Z,94543.91
2019-03-01T04:17:49.945Z,94553.55
2019-03-01T04:20:19.139Z,94542.88
2019-03-01T04:22:49.078Z,94532.59
2019-03-01T04:25:18.577Z,94535.64
2019-03-01T04:27:47.647Z,94541.25
2019-03-01T04:30:17.166Z,94542.39
2019-03-01T04:32:46.200Z,94539.19
2019-03-01T04:35:15.518Z,94542.73
2019-03-01T04:37:45.273Z,94544.98
2019-03-01T04:40:16.135Z,94558.47
2019-03-01T04:42:45.093Z,94559.73
2019-03-01T04:45:14.664Z,94557.09
2019-03-01T04:47:43.689Z,94552.73
2019-03-01T04:50:12.883Z,94543.65
2019-03-01T04:52:43.049Z,94552.94
2019-03-01T04:55:14.097Z,94557.74
2019-03-01T04:57:43.384Z,94554.84
2019-03-01T05:00:15.250Z,94548.64
2019-03-01T05:02:45.181Z,94552.94
2019-03-01T05:05:15.073Z,94545.88
2019-03-01T05:07:44.338Z,94545.48
2019-03-01T05:10:14.028Z,94544.01
2019-03-01T05:12:43.462Z,94538.30
2019-03-01T05:15:23.260Z,94545.98
2019-03-01T05:17:52.722Z,94545.45
2019-03-01T05:20:21.834Z,94556.23
2019-03-01T05:22:51.554Z,94558.77
2019-03-01T05:25:20.482Z,94559.98
2019-03-01T05:27:49.718Z,94547.73
2019-03-01T05:30:18.919Z,94552.77
2019-03-01T05:32:49.613Z,94557.98
2019-03-01T05:35:18.833Z,94555.06
2019-03-01T05:37:48.391Z,94563.27
2019-03-01T05:40:17.957Z,94561.13
2019-03-01T05:42:47.875Z,94555.84
2019-03-01T05:45:19.987Z,94557.14
2019-03-01T05:47:49.282Z,94568.10
2019-03-01T05:50:19.039Z,94567.02
2019-03-01T05:52:48.898Z,94566.87
2019-03-01T05:55:18.631Z,94560.02
2019-03-01T05:57:58.618Z,94568.28
2019-03-01T06:00:28.366Z,94571.30
2019-03-01T06:03:14.257Z,94575.76
2019-03-01T06:05:43.848Z,94580.98
2019-03-01T06:10:26.173Z,94576.70
2019-03-01T06:13:10.633Z,94582.39
2019-03-01T06:16:48.818Z,94586.77
2019-03-01T06:19:28.927Z,94579.87
2019-03-01T06:23:18.637Z,94596.96
2019-03-01T06:25:59.286Z,94584.99
2019-03-01T06:28:40.495Z,94587.21
2019-03-01T06:31:21.074Z,94586.84
2019-03-01T06:34:42.369Z,94588.83
2019-03-01T06:37:24.638Z,94580.12
2019-03-01T06:40:16.457Z,94586.25
2019-03-01T06:42:54.394Z,94588.95
2019-03-01T06:46:02.262Z,94594.57
2019-03-01T06:48:39.634Z,94595.79
2019-03-01T06:51:13.972Z,94587.03
2019-03-01T06:53:44.253Z,94595.47
2019-03-01T06:56:14.301Z,94591.33
2019-03-01T06:58:46.923Z,94594.51
2019-03-01T07:01:18.346Z,94590.36
2019-03-01T07:03:51.828Z,94584.91
2019-03-01T07:06:21.052Z,94591.28
2019-03-01T07:08:50.371Z,94589.77
2019-03-01T07:11:19.551Z,94582.51
2019-03-01T07:13:48.813Z,94587.80
2019-03-01T07:16:18.263Z,94579.78
2019-03-01T07:18:49.312Z,94572.45
2019-03-01T07:21:18.916Z,94578.23
2019-03-01T07:23:47.996Z,94567.01
2019-03-01T07:26:17.260Z,94563.91
2019-03-01T07:28:46.876Z,94573.87
2019-03-01T07:31:16.091Z,94571.26
2019-03-01T07:33:46.152Z,94570.99
2019-03-01T07:36:15.800Z,94569.70
2019-03-01T07:38:45.572Z,94575.26
2019-03-01T07:41:15.414Z,94568.72
2019-03-01T07:43:44.746Z,94562.70
2019-03-01T07:46:13.965Z,94571.86
2019-03-01T07:48:43.418Z,94561.64
2019-03-01T07:51:12.545Z,94561.92
2019-03-01T07:53:42.160Z,94555.34
2019-03-01T07:56:11.296Z,94556.39
2019-03-01T07:58:40.341Z,94559.53
2019-03-01T08:01:09.667Z,94565.56
2019-03-01T08:03:39.069Z,94556.12
2019-03-01T08:06:13.071Z,94560.59
2019-03-01T08:08:39.004Z,94546.95
2019-03-01T08:11:07.624Z,94570.52
2019-03-01T08:13:37.655Z,94552.41
2019-03-01T08:16:06.784Z,94558.44
2019-03-01T08:18:36.244Z,94559.45
2019-03-01T08:21:06.265Z,94565.20
2019-03-01T08:23:35.939Z,94566.19
2019-03-01T08:26:05.105Z,94565.38
2019-03-01T08:28:34.640Z,94566.48
2019-03-01T08:31:04.627Z,94573.02
2019-03-01T08:33:33.890Z,94585.59
2019-03-01T08:36:05.805Z,94597.67
2019-03-01T08:38:33.490Z,94592.97
2019-03-01T08:41:02.615Z,94608.39
2019-03-01T08:43:31.897Z,94595.80
2019-03-01T08:46:01.616Z,94602.63
2019-03-01T08:48:33.649Z,94579.20
2019-03-01T08:51:00.519Z,94595.31
2019-03-01T08:53:30.076Z,94602.10
2019-03-01T08:55:59.994Z,94594.56
2019-03-01T08:58:28.993Z,94592.92
2019-03-01T09:00:59.952Z,94583.48
2019-03-01T09:03:32.967Z,94593.91
2019-03-01T09:06:02.659Z,94588.48
2019-03-01T09:08:32.255Z,94575.98
2019-03-01T09:11:05.513Z,94521.30
2019-03-01T09:13:32.417Z,94578.75
2019-03-01T09:16:02.215Z,94593.30
2019-03-01T09:18:31.553Z,94592.95
2019-03-01T09:21:05.510Z,94585.34
2019-03-01T09:23:30.829Z,94580.95
2019-03-01T09:26:00.905Z,94591.23
2019-03-01T09:28:32.756Z,94585.93
2019-03-01T09:31:00.067Z,94585.41
2019-03-01T09:33:30.235Z,94573.06
2019-03-01T09:37:03.641Z,94581.09
2019-03-01T09:39:33.521Z,94581.00
2019-03-01T09:42:06.136Z,94576.58
2019-03-01T09:44:34.572Z,94578.65
2019-03-01T09:47:02.975Z,94569.63
2019-03-01T09:49:32.199Z,94573.27
2019-03-01T09:52:01.441Z,94572.42
2019-03-01T09:54:31.248Z,94557.49
2019-03-01T09:57:00.860Z,94564.16
2019-03-01T09:59:30.808Z,94554.86
2019-03-01T10:01:59.899Z,94561.11
2019-03-01T10:04:29.051Z,94557.19
2019-03-01T10:06:59.613Z,94546.30
2019-03-01T10:09:28.937Z,94549.66
2019-03-01T10:11:59.032Z,94538.12
2019-03-01T10:14:28.033Z,94545.27
2019-03-01T10:16:57.416Z,94535.80
2019-03-01T10:19:26.566Z,94532.20
2019-03-01T10:21:55.653Z,94531.38
2019-03-01T10:24:25.379Z,94542.57
2019-03-01T10:26:54.751Z,94530.88
2019-03-01T10:29:24.040Z,94527.58
2019-03-01T10:31:54.018Z,94517.20
2019-03-01T10:34:24.207Z,94520.89
2019-03-01T10:36:53.893Z,94515.05
2019-03-01T10:39:23.835Z,94515.72
2019-03-01T10:41:53.090Z,94511.89
2019-03-01T10:44:22.238Z,94509.84
2019-03-01T10:46:52.873Z,94504.02
2019-03-01T10:49:22.957Z,94509.74
2019-03-01T10:51:52.113Z,94497.16
2019-03-01T10:54:21.481Z,94493.98
2019-03-01T10:56:50.916Z,94479.17
2019-03-01T10:59:20.175Z,94482.39
2019-03-01T11:01:49.334Z,94476.94
2019-03-01T11:04:19.109Z,94462.17
2019-03-01T11:06:48.480Z,94486.00
2019-03-01T11:09:17.654Z,94466.63
2019-03-01T11:11:46.623Z,94467.45
2019-03-01T11:14:15.980Z,94482.80
2019-03-01T11:16:45.031Z,94461.02
2019-03-01T11:19:14.153Z,94457.12
2019-03-01T11:21:43.382Z,94450.94
2019-03-01T11:24:12.951Z,94455.01
2019-03-01T11:26:42.193Z,94444.78
2019-03-01T11:29:12.307Z,94439.11
2019-03-01T11:31:41.384Z,94445.78
2019-03-01T11:34:11.201Z,94436.00
2019-03-01T11:36:40.949Z,94443.63
2019-03-01T11:39:10.174Z,94443.81
2019-03-01T11:41:40.188Z,94427.63
2019-03-01T11:44:09.842Z,94426.88
2019-03-01T11:46:40.142Z,94432.77
2019-03-01T11:49:09.604Z,94439.23
2019-03-01T11:51:39.932Z,94437.02
2019-03-01T11:54:09.075Z,94434.16
2019-03-01T11:56:38.945Z,94430.42
2019-03-01T11:59:08.926Z,94432.34
2019-03-01T12:01:38.270Z,94430.59
2019-03-01T12:04:07.581Z,94416.48
2019-03-01T12:06:37.910Z,94419.26
2019-03-01T12:09:07.868Z,94415.83
2019-03-01T12:11:37.039Z,94407.31
2019-03-01T12:14:07.507Z,94407.46
2019-03-01T12:16:36.869Z,94412.50
2019-03-01T12:19:06.254Z,94405.02
2019-03-01T12:21:35.159Z,94399.05
2019-03-01T12:24:04.519Z,94393.03
2019-03-01T12:26:34.165Z,94386.84
2019-03-01T12:29:03.776Z,94392.80
2019-03-01T12:31:33.112Z,94393.53
2019-03-01T12:34:02.409Z,94380.96
2019-03-01T12:36:31.540Z,94381.16
2019-03-01T12:39:00.913Z,94383.74
2019-03-01T12:41:29.797Z,94379.48
2019-03-01T12:43:59.105Z,94372.95
2019-03-01T12:46:28.157Z,94370.18
2019-03-01T12:48:57.487Z,94356.95
2019-03-01T12:51:27.085Z,94370.19
2019-03-01T12:53:56.422Z,94366.20
2019-03-01T12:56:25.877Z,94363.33
2019-03-01T12:58:55.215Z,94365.85
2019-03-01T13:01:25.957Z,94358.43
2019-03-01T13:03:55.220Z,94353.69
2019-03-01T13:06:24.384Z,94356.62
2019-03-01T13:08:54.671Z,94355.34
2019-03-01T13:11:23.842Z,94351.93
2019-03-01T13:13:53.641Z,94343.31
2019-03-01T13:16:23.493Z,94341.45
2019-03-01T13:18:52.421Z,94341.36
2019-03-01T13:21:21.420Z,94344.72
2019-03-01T13:23:50.601Z,94347.29
2019-03-01T13:26:19.720Z,94334.92
2019-03-01T13:28:49.743Z,94336.74
2019-03-01T13:31:19.100Z,94335.06
2019-03-01T13:33:48.352Z,94333.85
2019-03-01T13:36:17.696Z,94340.80
2019-03-01T13:38:47.045Z,94332.53
2019-03-01T13:41:16.452Z,94335.79
2019-03-01T13:43:45.334Z,94329.48
2019-03-01T13:46:15.106Z,94320.63
2019-03-01T13:48:44.405Z,94321.25
2019-03-01T13:51:17.120Z,94330.09
2019-03-01T13:53:49.041Z,94338.30
2019-03-01T13:56:12.556Z,94315.46
2019-03-01T13:58:42.415Z,94318.59
2019-03-01T14:01:12.211Z,94322.94
2019-03-01T14:03:41.472Z,94306.91
2019-03-01T14:06:10.687Z,94311.33
2019-03-01T14:08:40.148Z,94302.77
2019-03-01T14:11:09.862Z,94307.84
2019-03-01T14:13:39.772Z,94298.89
2019-03-01T14:16:09.737Z,94294.45
2019-03-01T14:18:38.908Z,94297.91
2019-03-01T14:21:08.187Z,94287.48
2019-03-01T14:23:37.470Z,94292.01
2019-03-01T14:26:08.300Z,94299.76
2019-03-01T14:28:38.053Z,94293.67
2019-03-01T14:31:07.521Z,94301.56
2019-03-01T14:33:36.770Z,94301.08
2019-03-01T14:36:05.903Z,94303.72
2019-03-01T14:38:34.771Z,94318.73
2019-03-01T14:41:04.344Z,94302.73
2019-03-01T14:43:33.466Z,94306.66
2019-03-01T14:46:02.710Z,94304.55
2019-03-01T14:48:31.940Z,94303.88
2019-03-01T14:51:02.244Z,94293.45
2019-03-01T14:53:34.355Z,94296.98
2019-03-01T14:56:05.684Z,94283.28
2019-03-01T14:58:39.411Z,94288.20
2019-03-01T15:02:15.558Z,94285.09
2019-03-01T15:04:44.721Z,94287.05
2019-03-01T15:07:14.431Z,94285.56
2019-03-01T15:09:43.283Z,94290.64
2019-03-01T15:12:19.658Z,94301.38
2019-03-01T15:14:41.850Z,94297.41
2019-03-01T15:17:12.184Z,94294.09
2019-03-01T15:19:44.508Z,94299.53
2019-03-01T15:22:13.051Z,94302.41
2019-03-01T15:24:40.127Z,94301.69
2019-03-01T15:27:09.281Z,94316.21
2019-03-01T15:29:39.700Z,94314.33
2019-03-01T15:32:09.735Z,94311.31
2019-03-01T15:34:39.635Z,94309.02
2019-03-01T15:37:08.902Z,94312.36
2019-03-01T15:39:38.040Z,94315.22
2019-03-01T15:42:09.943Z,94314.68
2019-03-01T15:44:37.868Z,94318.50
2019-03-01T15:47:07.548Z,94318.48
2019-03-01T15:49:36.761Z,94327.47
2019-03-01T15:52:06.031Z,94325.45
2019-03-01T15:54:35.933Z,94319.07
2019-03-01T15:57:04.556Z,94322.19
2019-03-01T15:59:34.237Z,94324.97
2019-03-01T16:02:03.271Z,94317.09
2019-03-01T16:04:33.613Z,94329.02
2019-03-01T16:07:01.859Z,94334.16
2019-03-01T16:09:31.907Z,94338.17
2019-03-01T16:12:00.784Z,94334.08
2019-03-01T16:14:29.635Z,94335.16
2019-03-01T16:16:58.760Z,94331.64
2019-03-01T16:19:28.353Z,94334.48
2019-03-01T16:21:57.982Z,94338.70
2019-03-01T16:24:26.963Z,94333.43
2019-03-01T16:26:56.377Z,94337.70
2019-03-01T16:29:26.229Z,94343.39
2019-03-01T16:31:55.778Z,94350.69
2019-03-01T16:34:24.903Z,94330.87
2019-03-01T16:36:56.024Z,94327.80
2019-03-01T16:39:25.319Z,94334.53
2019-03-01T16:41:54.513Z,94322.65
2019-03-01T16:44:24.103Z,94332.89
2019-03-01T16:46:53.762Z,94329.23
2019-03-01T16:49:26.820Z,94321.71
2019-03-01T16:51:54.058Z,94332.69
2019-03-01T16:54:22.205Z,94325.95
2019-03-01T16:56:51.961Z,94324.34
2019-03-01T16:59:20.799Z,94329.23
2019-03-01T17:01:49.747Z,94335.83
2019-03-01T17:04:18.778Z,94348.45
2019-03-01T17:06:49.299Z,94354.56
2019-03-01T17:09:17.891Z,94356.43
2019-03-01T17:11:47.051Z,94350.97
2019-03-01T17:14:16.822Z,94353.55
2019-03-01T17:16:45.960Z,94355.63
2019-03-01T17:19:15.164Z,94351.78
2019-03-01T17:21:47.679Z,94354.05
2019-03-01T17:24:15.539Z,94352.15
2019-03-01T17:26:42.779Z,94359.03
2019-03-01T17:29:12.510Z,94358.34
2019-03-01T17:31:41.566Z,94366.89
2019-03-01T17:34:10.484Z,94362.50
2019-03-01T17:36:39.615Z,94363.95
2019-03-01T17:39:08.881Z,94368.36
2019-03-01T17:41:38.567Z,94372.91
2019-03-01T17:44:08.721Z,94383.58
2019-03-01T17:46:36.981Z,94379.39
2019-03-01T17:49:06.080Z,94381.59
2019-03-01T17:51:41.385Z,94368.27
2019-03-01T17:54:10.404Z,94360.73
2019-03-01T17:56:39.410Z,94371.29
2019-03-01T17:59:11.830Z,94373.00
2019-03-01T18:01:39.280Z,94372.62
2019-03-01T18:04:08.117Z,94374.55
2019-03-01T18:06:37.358Z,94379.39
2019-03-01T18:09:07.578Z,94377.69
2019-03-01T18:11:36.596Z,94384.94
2019-03-01T18:14:05.765Z,94374.98
2019-03-01T18:16:34.853Z,94371.34
2019-03-01T18:19:03.949Z,94353.63
2019-03-01T18:21:34.110Z,94362.31
2019-03-01T18:24:03.151Z,94364.59
2019-03-01T18:26:32.969Z,94370.88
2019-03-01T18:29:04.412Z,94375.18
2019-03-01T18:31:35.415Z,94374.38
2019-03-01T18:34:02.693Z,94371.73
2019-03-01T18:36:32.888Z,94372.09
2019-03-01T18:39:03.781Z,94385.41
2019-03-01T18:41:30.923Z,94377.29
2019-03-01T18:44:00.080Z,94381.30
2019-03-01T18:46:29.209Z,94379.77
2019-03-01T18:48:59.032Z,94381.99
2019-03-01T18:51:28.173Z,94375.30
2019-03-01T18:53:57.273Z,94372.13
2019-03-01T18:56:28.618Z,94386.38
2019-03-01T18:58:55.851Z,94387.31
2019-03-01T19:01:25.228Z,94374.41
2019-03-01T19:03:55.097Z,94384.94
2019-03-01T19:06:25.659Z,94384.14
2019-03-01T19:08:54.633Z,94373.53
2019-03-01T19:11:23.768Z,94359.20
2019-03-01T19:13:52.900Z,94380.61
2019-03-01T19:16:22.168Z,94386.70
2019-03-01T19:18:53.087Z,94393.38
2019-03-01T19:21:20.887Z,94391.70
2019-03-01T19:23:49.844Z,94393.35
2019-03-01T19:26:19.038Z,94399.29
2019-03-01T19:28:49.323Z,94401.06
2019-03-01T19:31:21.574Z,94405.08
2019-03-01T19:33:47.485Z,94404.22
2019-03-01T19:36:16.695Z,94404.74
2019-03-01T19:38:46.498Z,94412.34
2019-03-01T19:41:15.065Z,94399.36
2019-03-01T19:43:45.642Z,94402.14
2019-03-01T19:46:15.718Z,94399.69
2019-03-01T19:48:42.975Z,94409.21
2019-03-01T19:51:12.852Z,94403.41
2019-03-01T19:53:41.857Z,94408.70
2019-03-01T19:56:11.352Z,94415.03
2019-03-01T19:58:40.616Z,94414.31
2019-03-01T20:01:09.480Z,94413.00
2019-03-01T20:03:38.374Z,94412.56
2019-03-01T20:06:08.730Z,94415.98
2019-03-01T20:08:37.064Z,94411.80
2019-03-01T20:11:06.180Z,94416.53
2019-03-01T20:13:35.361Z,94415.83
2019-03-01T20:16:04.668Z,94416.16
2019-03-01T20:18:34.305Z,94415.17
2019-03-01T20:21:05.846Z,94416.88
2019-03-01T20:23:32.986Z,94415.53
2019-03-01T20:26:02.548Z,94418.69
2019-03-01T20:28:32.038Z,94418.17
2019-03-01T20:31:04.600Z,94415.80
2019-03-01T20:33:30.656Z,94413.95
2019-03-01T20:36:00.539Z,94418.12
2019-03-01T20:38:29.581Z,94411.09
2019-03-01T20:40:59.807Z,94410.56
2019-03-01T20:43:29.496Z,94406.09
2019-03-01T20:45:58.721Z,94405.77
2019-03-01T20:48:28.901Z,94412.05
2019-03-01T20:50:57.183Z,94411.53
2019-03-01T20:53:26.339Z,94407.06
2019-03-01T20:55:56.424Z,94411.44
2019-03-01T20:58:25.615Z,94412.73
2019-03-01T21:00:54.482Z,94409.06
2019-03-01T21:03:24.915Z,94411.59
2019-03-01T21:05:52.847Z,94414.41
2019-03-01T21:08:22.039Z,94411.02
2019-03-01T21:10:51.264Z,94412.56
2019-03-01T21:13:26.905Z,94425.03
2019-03-01T21:15:56.964Z,94420.56
2019-03-01T21:18:26.123Z,94410.91
2019-03-01T21:20:55.000Z,94420.50
2019-03-01T21:23:24.016Z,94417.59
2019-03-01T21:25:53.092Z,94413.92
2019-03-01T21:28:22.059Z,94412.06
2019-03-01T21:30:51.268Z,94409.88
2019-03-01T21:33:23.992Z,94404.18
2019-03-01T21:35:51.219Z,94411.09
2019-03-01T21:38:20.035Z,94420.16
2019-03-01T21:40:50.019Z,94422.23
2019-03-01T21:43:18.806Z,94411.12
2019-03-01T21:45:48.056Z,94412.64
2019-03-01T21:48:18.649Z,94413.22
2019-03-01T21:50:46.703Z,94410.27
2019-03-01T21:53:16.227Z,94404.11
2019-03-01T21:55:45.144Z,94408.30
2019-03-01T21:58:14.205Z,94407.76
2019-03-01T22:00:44.068Z,94407.90
2019-03-01T22:03:13.115Z,94408.30
2019-03-01T22:05:45.261Z,94411.50
2019-03-01T22:08:12.878Z,94407.75
2019-03-01T22:10:40.780Z,94412.20
2019-03-01T22:13:10.186Z,94397.55
2019-03-01T22:15:39.139Z,94396.88
2019-03-01T22:18:08.411Z,94392.00
2019-03-01T22:20:41.479Z,94397.54
2019-03-01T22:23:10.194Z,94406.55
2019-03-01T22:25:37.984Z,94409.91
2019-03-01T22:28:06.026Z,94405.99
2019-03-01T22:30:35.193Z,94409.11
2019-03-01T22:33:04.254Z,94416.95
2019-03-01T22:35:33.572Z,94405.64
2019-03-01T22:38:04.793Z,94411.83
2019-03-01T22:40:32.693Z,94408.44
2019-03-01T22:43:02.755Z,94403.61
2019-03-01T22:45:32.831Z,94394.77
2019-03-01T22:48:02.508Z,94398.98
2019-03-01T22:50:31.676Z,94402.72
2019-03-01T22:53:03.238Z,94399.44
2019-03-01T22:55:29.928Z,94405.82
2019-03-01T22:58:00.837Z,94401.66
2019-03-01T23:01:44.032Z,94398.85
2019-03-01T23:04:13.439Z,94402.67
2019-03-01T23:06:42.651Z,94401.88
2019-03-01T23:09:15.857Z,94408.02
2019-03-01T23:11:45.016Z,94405.70
2019-03-01T23:14:14.071Z,94407.84
2019-03-01T23:16:43.112Z,94404.20
2019-03-01T23:19:16.084Z,94402.19
2019-03-01T23:21:42.128Z,94411.42
2019-03-01T23:24:11.401Z,94406.45
2019-03-01T23:26:40.943Z,94409.75
2019-03-01T23:29:09.917Z,94410.91
2019-03-01T23:31:39.735Z,94411.81
2019-03-01T23:34:09.076Z,94416.02
2019-03-01T23:36:38.283Z,94415.47
2019-03-01T23:39:08.156Z,94423.27
2019-03-01T23:41:37.466Z,94420.12
2019-03-01T23:44:07.834Z,94415.42
2019-03-01T23:46:36.763Z,94415.18
2019-03-01T23:49:06.687Z,94410.98
2019-03-01T23:51:35.247Z,94417.24
2019-03-01T23:54:05.757Z,94421.63
2019-03-01T23:56:33.696Z,94424.52
2019-03-01T23:59:02.846Z,94423.09
